createdAt,value
2017-05-07T00:01:05.818Z,99.99
2017-05-07T00:02:17.025Z,99.99
2017-05-07T00:03:28.031Z,99.99
2017-05-07T00:04:39.083Z,99.99
2017-05-07T00:05:50.096Z,99.99
2017-05-07T00:07:01.085Z,99.99
2017-05-07T00:08:12.297Z,99.99
2017-05-07T00:09:23.316Z,99.99
2017-05-07T00:10:34.317Z,99.99
2017-05-07T00:11:45.316Z,99.99
2017-05-07T00:12:56.340Z,99.99
2017-05-07T00:14:07.341Z,99.99
2017-05-07T00:15:18.384Z,99.99
2017-05-07T00:16:29.590Z,99.99
2017-05-07T00:17:40.587Z,99.99
2017-05-07T00:18:51.590Z,99.99
2017-05-07T00:20:02.608Z,99.99
2017-05-07T00:21:13.657Z,99.99
2017-05-07T00:22:24.660Z,99.99
2017-05-07T00:23:35.661Z,99.99
2017-05-07T00:24:46.673Z,99.99
2017-05-07T00:25:57.904Z,99.99
2017-05-07T00:27:09.112Z,99.99
2017-05-07T00:28:20.317Z,99.99
2017-05-07T00:29:31.318Z,99.99
2017-05-07T00:30:42.327Z,99.99
2017-05-07T00:31:53.337Z,99.99
2017-05-07T00:33:04.541Z,99.99
2017-05-07T00:34:15.538Z,99.99
2017-05-07T00:35:26.551Z,99.99
2017-05-07T00:36:37.548Z,99.99
2017-05-07T00:37:48.554Z,99.99
2017-05-07T00:38:59.621Z,99.99
2017-05-07T00:40:10.624Z,99.99
2017-05-07T00:41:21.636Z,99.99
2017-05-07T00:42:32.641Z,99.99
2017-05-07T00:43:43.651Z,99.99
2017-05-07T00:44:54.660Z,99.99
2017-05-07T00:46:05.851Z,99.99
2017-05-07T00:47:16.854Z,99.99
2017-05-07T00:48:27.902Z,99.99
2017-05-07T00:49:38.906Z,99.99
2017-05-07T00:50:50.120Z,99.99
2017-05-07T00:52:01.127Z,99.99
2017-05-07T00:53:12.332Z,99.99
2017-05-07T00:54:23.339Z,99.99
2017-05-07T00:55:34.541Z,99.99
2017-05-07T00:56:45.550Z,99.99
2017-05-07T00:57:56.565Z,99.99
2017-05-07T00:59:07.621Z,99.99
2017-05-07T01:00:18.642Z,99.99
2017-05-07T01:01:29.663Z,99.99
2017-05-07T01:02:40.670Z,99.99
2017-05-07T01:03:51.687Z,99.99
2017-05-07T01:05:02.903Z,99.99
2017-05-07T01:06:14.104Z,99.99
2017-05-07T01:07:25.120Z,99.99
2017-05-07T01:08:36.127Z,99.99
2017-05-07T01:09:47.198Z,99.99
2017-05-07T01:10:58.208Z,99.99
2017-05-07T01:12:09.206Z,99.99
2017-05-07T01:13:20.204Z,99.99
2017-05-07T01:14:31.243Z,99.99
2017-05-07T01:15:42.262Z,99.99
2017-05-07T01:16:53.276Z,99.99
2017-05-07T01:18:04.488Z,99.99
2017-05-07T01:19:15.494Z,99.99
2017-05-07T01:20:26.500Z,99.99
2017-05-07T01:21:37.515Z,99.99
2017-05-07T01:22:48.725Z,99.99
2017-05-07T01:23:59.935Z,99.99
2017-05-07T01:25:10.993Z,99.99
2017-05-07T01:26:22.403Z,99.99
2017-05-07T01:27:33.419Z,99.99
2017-05-07T01:28:44.433Z,99.99
2017-05-07T01:29:55.435Z,99.99
2017-05-07T01:31:06.443Z,99.99
2017-05-07T01:32:17.448Z,99.99
2017-05-07T01:33:28.465Z,99.99
2017-05-07T01:34:39.464Z,99.99
2017-05-07T01:35:50.665Z,99.99
2017-05-07T01:37:01.677Z,99.99
2017-05-07T01:38:12.682Z,99.99
2017-05-07T01:39:23.700Z,99.99
2017-05-07T01:40:34.734Z,99.99
2017-05-07T01:41:45.740Z,99.99
2017-05-07T01:42:56.808Z,99.99
2017-05-07T01:44:07.817Z,99.99
2017-05-07T01:45:19.020Z,99.99
2017-05-07T01:46:30.020Z,99.99
2017-05-07T01:47:41.019Z,99.99
2017-05-07T01:48:52.036Z,99.99
2017-05-07T01:50:03.043Z,99.99
2017-05-07T01:51:14.042Z,99.99
2017-05-07T01:52:25.099Z,99.99
2017-05-07T01:53:36.101Z,99.99
2017-05-07T01:54:47.120Z,99.99
2017-05-07T01:55:58.323Z,99.99
2017-05-07T01:57:09.332Z,99.99
2017-05-07T01:58:20.531Z,99.99
2017-05-07T01:59:31.927Z,99.99
2017-05-07T02:00:43.131Z,99.99
2017-05-07T02:01:54.749Z,99.99
2017-05-07T02:03:05.807Z,99.99
2017-05-07T02:04:16.808Z,99.99
2017-05-07T02:05:27.808Z,99.99
2017-05-07T02:06:38.816Z,99.99
2017-05-07T02:07:49.829Z,99.99
2017-05-07T02:09:00.835Z,99.99
2017-05-07T02:10:11.850Z,99.99
2017-05-07T02:11:22.891Z,99.99
2017-05-07T02:12:33.883Z,99.99
2017-05-07T02:13:44.953Z,99.99
2017-05-07T02:14:56.169Z,99.99
2017-05-07T02:16:07.571Z,99.99
2017-05-07T02:17:18.568Z,99.99
2017-05-07T02:18:29.575Z,99.99
2017-05-07T02:19:40.583Z,99.99
2017-05-07T02:20:51.589Z,99.99
2017-05-07T02:22:02.800Z,99.99
2017-05-07T02:23:14.018Z,99.99
2017-05-07T02:24:25.077Z,99.99
2017-05-07T02:25:36.319Z,99.99
2017-05-07T02:26:47.335Z,99.99
2017-05-07T02:27:58.553Z,99.99
2017-05-07T02:29:09.562Z,99.99
2017-05-07T02:30:20.770Z,99.99
2017-05-07T02:31:31.779Z,99.99
2017-05-07T02:32:42.797Z,99.99
2017-05-07T02:33:53.806Z,99.99
2017-05-07T02:35:04.824Z,99.99
2017-05-07T02:36:15.827Z,99.99
2017-05-07T02:37:26.839Z,99.99
2017-05-07T02:38:37.858Z,99.99
2017-05-07T02:39:48.885Z,99.99
2017-05-07T02:40:59.914Z,99.99
2017-05-07T02:42:10.917Z,99.99
2017-05-07T02:43:21.923Z,99.99
2017-05-07T02:44:32.921Z,99.99
2017-05-07T02:45:44.132Z,99.99
2017-05-07T02:46:55.192Z,99.99
2017-05-07T02:48:06.185Z,99.99
2017-05-07T02:49:17.194Z,99.99
2017-05-07T02:50:28.201Z,99.99
2017-05-07T02:51:39.197Z,99.99
2017-05-07T02:52:50.206Z,99.99
2017-05-07T02:54:01.220Z,99.99
2017-05-07T02:55:12.223Z,99.99
2017-05-07T02:56:23.290Z,99.99
2017-05-07T02:57:34.282Z,99.99
2017-05-07T02:58:45.520Z,99.99
2017-05-07T02:59:56.523Z,99.99
2017-05-07T03:01:07.734Z,99.99
2017-05-07T03:02:18.947Z,99.99
2017-05-07T03:03:29.961Z,99.99
2017-05-07T03:04:40.998Z,99.99
2017-05-07T03:05:51.998Z,99.99
2017-05-07T03:07:03.062Z,99.99
2017-05-07T03:08:14.077Z,99.99
2017-05-07T03:09:25.284Z,99.99
2017-05-07T03:10:36.292Z,99.99
2017-05-07T03:11:47.507Z,99.99
2017-05-07T03:12:58.503Z,99.99
2017-05-07T03:14:09.503Z,99.99
2017-05-07T03:15:20.517Z,99.99
2017-05-07T03:16:31.515Z,99.99
2017-05-07T03:17:42.771Z,99.99
2017-05-07T03:18:53.776Z,99.99
2017-05-07T03:20:04.775Z,99.99
2017-05-07T03:21:15.783Z,99.99
2017-05-07T03:22:26.788Z,99.99
2017-05-07T03:23:37.803Z,99.99
2017-05-07T03:24:48.805Z,99.99
2017-05-07T03:25:59.818Z,99.99
2017-05-07T03:27:10.819Z,99.99
2017-05-07T03:28:21.884Z,99.99
2017-05-07T03:29:33.098Z,99.99
2017-05-07T03:30:44.099Z,99.99
2017-05-07T03:31:55.103Z,99.99
2017-05-07T03:33:06.112Z,99.99
2017-05-07T03:34:17.169Z,99.99
2017-05-07T03:35:28.181Z,99.99
2017-05-07T03:36:39.387Z,99.99
2017-05-07T03:37:50.407Z,99.99
2017-05-07T03:39:01.617Z,99.99
2017-05-07T03:40:12.631Z,99.99
2017-05-07T03:41:23.852Z,99.99
2017-05-07T03:42:34.857Z,99.99
2017-05-07T03:43:45.876Z,99.99
2017-05-07T03:44:56.870Z,99.99
2017-05-07T03:46:07.929Z,99.99
2017-05-07T03:47:18.932Z,99.99
2017-05-07T03:48:29.945Z,99.99
2017-05-07T03:49:40.948Z,99.99
2017-05-07T03:50:51.954Z,99.99
2017-05-07T03:52:03.164Z,99.99
2017-05-07T03:53:14.166Z,99.99
2017-05-07T03:54:25.380Z,99.99
2017-05-07T03:55:36.439Z,99.99
2017-05-07T03:56:47.484Z,99.99
2017-05-07T03:57:58.478Z,99.99
2017-05-07T03:59:09.484Z,99.99
2017-05-07T04:00:20.499Z,99.99
2017-05-07T04:01:31.505Z,99.99
2017-05-07T04:02:42.523Z,99.99
2017-05-07T04:03:53.527Z,99.99
2017-05-07T04:05:04.524Z,99.99
2017-05-07T04:06:15.576Z,99.99
2017-05-07T04:07:26.576Z,99.99
2017-05-07T04:08:37.782Z,99.99
2017-05-07T04:09:48.797Z,99.99
2017-05-07T04:11:00.011Z,99.99
2017-05-07T04:12:11.020Z,99.99
2017-05-07T04:13:22.008Z,99.99
2017-05-07T04:14:33.214Z,99.99
2017-05-07T04:15:44.209Z,99.99
2017-05-07T04:16:55.268Z,99.99
2017-05-07T04:18:06.271Z,99.99
2017-05-07T04:19:17.265Z,99.99
2017-05-07T04:20:28.495Z,99.99
2017-05-07T04:21:39.513Z,99.99
2017-05-07T04:22:50.521Z,99.99
2017-05-07T04:24:01.721Z,99.99
2017-05-07T04:25:12.733Z,99.99
2017-05-07T04:26:23.763Z,99.99
2017-05-07T04:27:34.806Z,99.99
2017-05-07T04:28:45.802Z,99.99
2017-05-07T04:29:56.815Z,99.99
2017-05-07T04:31:07.819Z,99.99
2017-05-07T04:32:18.829Z,99.99
2017-05-07T04:33:29.834Z,99.99
2017-05-07T04:34:40.846Z,99.99
2017-05-07T04:35:51.849Z,99.99
2017-05-07T04:37:02.846Z,99.99
2017-05-07T04:38:14.109Z,99.99
2017-05-07T04:39:25.309Z,99.99
2017-05-07T04:40:36.310Z,99.99
2017-05-07T04:41:47.318Z,99.99
2017-05-07T04:42:58.525Z,99.99
2017-05-07T04:44:09.539Z,99.99
2017-05-07T04:45:20.743Z,99.99
2017-05-07T04:46:31.745Z,99.99
2017-05-07T04:47:42.944Z,99.99
2017-05-07T04:48:53.958Z,99.99
2017-05-07T04:50:04.970Z,99.99
2017-05-07T04:51:15.984Z,99.99
2017-05-07T04:52:26.999Z,99.99
2017-05-07T04:53:38.015Z,99.99
2017-05-07T04:54:49.033Z,99.99
2017-05-07T04:56:00.105Z,99.99
2017-05-07T04:57:11.100Z,99.99
2017-05-07T04:58:22.107Z,99.99
2017-05-07T04:59:33.117Z,99.99
2017-05-07T05:00:44.125Z,99.99
2017-05-07T05:01:55.115Z,99.99
2017-05-07T05:03:06.121Z,99.99
2017-05-07T05:04:17.131Z,99.99
2017-05-07T05:05:28.339Z,99.99
2017-05-07T05:06:39.355Z,99.99
2017-05-07T05:07:50.366Z,99.99
2017-05-07T05:09:01.374Z,99.99
2017-05-07T05:10:12.437Z,99.99
2017-05-07T05:11:23.441Z,99.99
2017-05-07T05:12:34.454Z,99.99
2017-05-07T05:13:45.469Z,99.99
2017-05-07T05:14:56.477Z,99.99
2017-05-07T05:16:07.480Z,99.99
2017-05-07T05:17:18.484Z,99.99
2017-05-07T05:18:29.696Z,99.99
2017-05-07T05:19:40.695Z,99.99
2017-05-07T05:20:51.774Z,99.99
2017-05-07T05:22:02.984Z,99.99
2017-05-07T05:23:14.007Z,99.99
2017-05-07T05:24:25.017Z,99.99
2017-05-07T05:25:36.016Z,99.99
2017-05-07T05:26:47.019Z,99.99
2017-05-07T05:27:58.032Z,99.99
2017-05-07T05:29:09.028Z,99.99
2017-05-07T05:30:20.043Z,99.99
2017-05-07T05:31:31.303Z,99.99
2017-05-07T05:32:42.303Z,99.99
2017-05-07T05:33:53.310Z,99.99
2017-05-07T05:35:04.332Z,99.99
2017-05-07T05:36:15.340Z,99.99
2017-05-07T05:37:26.332Z,99.99
2017-05-07T05:38:37.550Z,99.99
2017-05-07T05:39:48.559Z,99.99
2017-05-07T05:40:59.578Z,99.99
2017-05-07T05:42:10.842Z,99.99
2017-05-07T05:43:21.849Z,99.99
2017-05-07T05:44:32.885Z,99.99
2017-05-07T05:45:43.879Z,99.99
2017-05-07T05:46:54.890Z,99.99
2017-05-07T05:48:05.895Z,99.99
2017-05-07T05:49:16.900Z,99.99
2017-05-07T05:50:28.102Z,99.99
2017-05-07T05:51:39.093Z,99.99
2017-05-07T05:52:50.097Z,99.99
2017-05-07T05:54:01.103Z,99.99
2017-05-07T05:55:12.115Z,99.99
2017-05-07T05:56:23.314Z,99.99
2017-05-07T05:57:34.319Z,99.99
2017-05-07T05:58:45.329Z,99.99
2017-05-07T05:59:56.392Z,99.99
2017-05-07T06:01:07.388Z,99.99
2017-05-07T06:02:18.398Z,99.99
2017-05-07T06:03:29.408Z,99.99
2017-05-07T06:04:40.421Z,99.99
2017-05-07T06:05:51.434Z,99.99
2017-05-07T06:07:02.664Z,99.99
2017-05-07T06:08:13.680Z,99.99
2017-05-07T06:09:24.789Z,99.99
2017-05-07T06:10:35.802Z,99.99
2017-05-07T06:11:46.815Z,99.99
2017-05-07T06:12:57.827Z,99.99
2017-05-07T06:14:09.050Z,99.99
2017-05-07T06:15:20.059Z,99.99
2017-05-07T06:16:31.069Z,99.99
2017-05-07T06:17:42.075Z,99.99
2017-05-07T06:18:53.064Z,99.99
2017-05-07T06:20:04.110Z,99.99
2017-05-07T06:21:15.148Z,99.99
2017-05-07T06:22:26.148Z,99.99
2017-05-07T06:23:37.174Z,99.99
2017-05-07T06:24:48.384Z,99.99
2017-05-07T06:25:59.402Z,99.99
2017-05-07T06:27:10.441Z,99.99
2017-05-07T06:28:21.453Z,99.99
2017-05-07T06:29:32.468Z,99.99
2017-05-07T06:30:43.532Z,99.99
2017-05-07T06:31:54.544Z,99.99
2017-05-07T06:33:05.562Z,99.99
2017-05-07T06:34:16.580Z,99.99
2017-05-07T06:35:27.581Z,99.99
2017-05-07T06:36:38.624Z,99.99
2017-05-07T06:37:49.636Z,99.99
2017-05-07T06:39:00.849Z,99.99
2017-05-07T06:40:11.879Z,99.99
2017-05-07T06:41:22.938Z,99.99
2017-05-07T06:42:33.948Z,99.99
2017-05-07T06:43:44.954Z,99.99
2017-05-07T06:44:55.976Z,99.99
2017-05-07T06:46:06.988Z,99.99
2017-05-07T06:47:17.985Z,99.99
2017-05-07T06:48:28.993Z,99.99
2017-05-07T06:49:40.001Z,99.99
2017-05-07T06:50:51.016Z,99.99
2017-05-07T06:52:02.032Z,99.99
2017-05-07T06:53:13.041Z,99.99
2017-05-07T06:54:24.048Z,99.99
2017-05-07T06:55:35.053Z,99.99
2017-05-07T06:56:46.254Z,99.99
2017-05-07T06:57:57.259Z,99.99
2017-05-07T06:59:08.266Z,99.99
2017-05-07T07:00:19.275Z,99.99
2017-05-07T07:01:30.275Z,99.99
2017-05-07T07:02:41.279Z,99.99
2017-05-07T07:03:52.326Z,99.99
2017-05-07T07:05:03.344Z,99.99
2017-05-07T07:06:14.348Z,99.99
2017-05-07T07:07:25.363Z,99.99
2017-05-07T07:08:36.371Z,99.99
2017-05-07T07:09:47.383Z,99.99
2017-05-07T07:10:58.392Z,99.99
2017-05-07T07:12:09.389Z,99.99
2017-05-07T07:13:20.468Z,99.99
2017-05-07T07:14:31.484Z,99.99
2017-05-07T07:15:42.700Z,99.99
2017-05-07T07:16:53.902Z,99.99
2017-05-07T07:18:05.110Z,99.99
2017-05-07T07:19:16.111Z,99.99
2017-05-07T07:20:27.117Z,99.99
2017-05-07T07:21:38.124Z,99.99
2017-05-07T07:22:49.139Z,99.99
2017-05-07T07:24:00.207Z,99.99
2017-05-07T07:25:11.215Z,99.99
2017-05-07T07:26:22.238Z,99.99
2017-05-07T07:27:33.242Z,99.99
2017-05-07T07:28:44.257Z,99.99
2017-05-07T07:29:55.266Z,99.99
2017-05-07T07:31:06.292Z,99.99
2017-05-07T07:32:17.301Z,99.99
2017-05-07T07:33:28.317Z,99.99
2017-05-07T07:34:39.382Z,99.99
2017-05-07T07:35:50.384Z,99.99
2017-05-07T07:37:01.402Z,99.99
2017-05-07T07:38:12.408Z,99.99
2017-05-07T07:39:23.421Z,99.99
2017-05-07T07:40:34.624Z,99.99
2017-05-07T07:41:45.625Z,99.99
2017-05-07T07:42:56.634Z,99.99
2017-05-07T07:44:07.641Z,99.99
2017-05-07T07:45:18.649Z,99.99
2017-05-07T07:46:29.656Z,99.99
2017-05-07T07:47:40.671Z,99.99
2017-05-07T07:48:51.683Z,99.99
2017-05-07T07:50:02.883Z,99.99
2017-05-07T07:51:14.087Z,99.99
2017-05-07T07:52:25.091Z,99.99
2017-05-07T07:53:36.313Z,99.99
2017-05-07T07:54:47.517Z,99.99
2017-05-07T07:55:58.714Z,99.99
2017-05-07T07:57:09.923Z,99.99
2017-05-07T07:58:21.131Z,99.99
2017-05-07T07:59:32.342Z,99.99
2017-05-07T08:00:43.350Z,99.99
2017-05-07T08:01:54.415Z,99.99
2017-05-07T08:03:05.632Z,99.99
2017-05-07T08:04:16.644Z,99.99
2017-05-07T08:05:27.647Z,99.99
2017-05-07T08:06:38.645Z,99.99
2017-05-07T08:07:50.058Z,99.99
2017-05-07T08:09:01.083Z,99.99
2017-05-07T08:10:12.098Z,99.99
2017-05-07T08:11:23.161Z,99.99
2017-05-07T08:12:34.239Z,99.99
2017-05-07T08:13:45.250Z,99.99
2017-05-07T08:14:56.256Z,99.99
2017-05-07T08:16:07.267Z,99.99
2017-05-07T08:17:18.273Z,99.99
2017-05-07T08:18:29.283Z,99.99
2017-05-07T08:19:40.330Z,99.99
2017-05-07T08:20:51.340Z,99.99
2017-05-07T08:22:02.603Z,99.99
2017-05-07T08:23:13.623Z,99.99
2017-05-07T08:24:24.649Z,99.99
2017-05-07T08:25:35.662Z,99.99
2017-05-07T08:26:46.874Z,99.99
2017-05-07T08:27:57.882Z,99.99
2017-05-07T08:29:08.901Z,99.99
2017-05-07T08:30:19.904Z,99.99
2017-05-07T08:31:30.915Z,99.99
2017-05-07T08:32:41.971Z,99.99
2017-05-07T08:33:53.178Z,99.99
2017-05-07T08:35:04.392Z,99.99
2017-05-07T08:36:15.413Z,99.99
2017-05-07T08:37:26.429Z,99.99
2017-05-07T08:38:37.442Z,99.99
2017-05-07T08:39:48.449Z,99.99
2017-05-07T08:40:59.453Z,99.99
2017-05-07T08:42:10.476Z,99.99
2017-05-07T08:43:21.536Z,99.99
2017-05-07T08:44:32.752Z,99.99
2017-05-07T08:45:43.769Z,99.99
2017-05-07T08:46:54.775Z,99.99
2017-05-07T08:48:05.786Z,99.99
2017-05-07T08:49:17.065Z,99.99
2017-05-07T08:50:28.071Z,99.99
2017-05-07T08:51:39.085Z,99.99
2017-05-07T08:52:50.088Z,99.99
2017-05-07T08:54:01.098Z,99.99
2017-05-07T08:55:12.109Z,99.99
2017-05-07T08:56:23.129Z,99.99
2017-05-07T08:57:34.131Z,99.99
2017-05-07T08:58:45.148Z,99.99
2017-05-07T08:59:56.161Z,99.99
2017-05-07T09:01:07.159Z,99.99
2017-05-07T09:02:18.378Z,99.99
2017-05-07T09:03:29.570Z,99.99
2017-05-07T09:04:40.578Z,99.99
2017-05-07T09:05:51.580Z,99.99
2017-05-07T09:07:02.852Z,99.99
2017-05-07T09:08:13.856Z,99.99
2017-05-07T09:09:24.864Z,99.99
2017-05-07T09:10:36.289Z,99.99
2017-05-07T09:11:47.505Z,99.99
2017-05-07T09:12:58.513Z,99.99
2017-05-07T09:14:09.721Z,99.99
2017-05-07T09:15:20.738Z,99.99
2017-05-07T09:16:31.797Z,99.99
2017-05-07T09:17:42.806Z,99.99
2017-05-07T09:18:54.032Z,99.99
2017-05-07T09:20:05.040Z,99.99
2017-05-07T09:21:16.042Z,99.99
2017-05-07T09:22:27.044Z,99.99
2017-05-07T09:23:38.057Z,99.96
2017-05-07T09:24:49.077Z,99.99
2017-05-07T09:26:00.298Z,99.99
2017-05-07T09:27:11.359Z,99.99
2017-05-07T09:28:22.571Z,99.99
2017-05-07T09:29:33.580Z,99.99
2017-05-07T09:30:44.579Z,99.99
2017-05-07T09:31:55.593Z,99.99
2017-05-07T09:33:06.600Z,99.99
2017-05-07T09:34:17.608Z,99.99
2017-05-07T09:35:28.815Z,99.99
2017-05-07T09:36:39.839Z,99.72
2017-05-07T09:37:50.902Z,99.29
2017-05-07T09:39:01.912Z,99.68
2017-05-07T09:40:12.936Z,98.28
2017-05-07T09:41:23.937Z,99.44
2017-05-07T09:42:34.949Z,98.43
2017-05-07T09:43:46.170Z,99.29
2017-05-07T09:44:57.185Z,97.76
2017-05-07T09:46:08.201Z,96.99
2017-05-07T09:47:19.222Z,95.5
2017-05-07T09:48:30.278Z,96.03
2017-05-07T09:49:41.299Z,94.31
2017-05-07T09:50:52.311Z,94.26
2017-05-07T09:52:03.530Z,94.64
2017-05-07T09:53:14.534Z,94.83
2017-05-07T09:54:25.600Z,94.45
2017-05-07T09:55:36.624Z,94.73
2017-05-07T09:56:47.848Z,94.98
2017-05-07T09:57:59.281Z,95.07
2017-05-07T09:59:10.289Z,94.06
2017-05-07T10:00:21.514Z,93.19
2017-05-07T10:01:32.532Z,93.96
2017-05-07T10:02:43.554Z,94.16
2017-05-07T10:03:54.557Z,93.87
2017-05-07T10:05:05.624Z,93.29
2017-05-07T10:06:16.631Z,92.91
2017-05-07T10:07:27.640Z,92.91
2017-05-07T10:08:38.862Z,93.58
2017-05-07T10:09:50.086Z,92.91
2017-05-07T10:11:01.105Z,93.29
2017-05-07T10:12:12.112Z,92.91
2017-05-07T10:13:23.131Z,93.53
2017-05-07T10:14:34.155Z,91.8
2017-05-07T10:15:45.218Z,91.9
2017-05-07T10:16:56.256Z,91.71
2017-05-07T10:18:07.486Z,92.43
2017-05-07T10:19:18.527Z,90.89
2017-05-07T10:20:29.537Z,91.22
2017-05-07T10:21:40.562Z,91.85
2017-05-07T10:22:51.579Z,91.46
2017-05-07T10:24:02.603Z,91.75
2017-05-07T10:25:13.849Z,91.66
2017-05-07T10:26:24.921Z,90.5
2017-05-07T10:27:35.929Z,90.69
2017-05-07T10:28:47.148Z,92.18
2017-05-07T10:29:58.415Z,90.55
2017-05-07T10:31:09.840Z,90.79
2017-05-07T10:32:21.063Z,90.31
2017-05-07T10:33:32.081Z,91.22
2017-05-07T10:34:43.108Z,91.32
2017-05-07T10:35:54.119Z,90.59
2017-05-07T10:37:05.193Z,90.31
2017-05-07T10:38:16.205Z,89.78
2017-05-07T10:39:27.438Z,89.78
2017-05-07T10:40:38.460Z,89.24
2017-05-07T10:41:49.508Z,88.47
2017-05-07T10:43:00.728Z,88.76
2017-05-07T10:44:11.749Z,87.9
2017-05-07T10:45:22.987Z,87.6
2017-05-07T10:46:34.007Z,87.99
2017-05-07T10:47:45.477Z,88.43
2017-05-07T10:48:56.504Z,88.71
2017-05-07T10:50:07.522Z,88.81
2017-05-07T10:51:18.539Z,89.78
2017-05-07T10:52:29.774Z,89.97
2017-05-07T10:53:40.796Z,90.59
2017-05-07T10:54:51.820Z,90.45
2017-05-07T10:56:02.840Z,90.98
2017-05-07T10:57:13.880Z,90.93
2017-05-07T10:58:24.894Z,91.66
2017-05-07T10:59:36.321Z,90.16
2017-05-07T11:00:47.341Z,89.64
2017-05-07T11:01:58.355Z,90.35
2017-05-07T11:03:09.368Z,90.16
2017-05-07T11:04:20.387Z,89.87
2017-05-07T11:05:31.865Z,90.83
2017-05-07T11:06:43.083Z,90.64
2017-05-07T11:07:54.096Z,91.31
2017-05-07T11:09:05.107Z,89.58
2017-05-07T11:10:16.137Z,90.06
2017-05-07T11:11:27.559Z,89.15
2017-05-07T11:12:38.574Z,87.36
2017-05-07T11:13:49.593Z,87.21
2017-05-07T11:15:00.659Z,86.92
2017-05-07T11:16:11.668Z,87.12
2017-05-07T11:17:22.894Z,85.52
2017-05-07T11:18:33.903Z,85.27
2017-05-07T11:19:44.921Z,86.14
2017-05-07T11:20:56.136Z,82.57
2017-05-07T11:22:07.160Z,81.41
2017-05-07T11:23:18.172Z,83.5
2017-05-07T11:24:29.197Z,84.07
2017-05-07T11:25:40.247Z,83.01
2017-05-07T11:26:51.272Z,83.26
2017-05-07T11:28:02.293Z,82.72
2017-05-07T11:29:13.299Z,82.34
2017-05-07T11:30:24.376Z,83.01
2017-05-07T11:31:35.389Z,82.05
2017-05-07T11:32:46.606Z,82.72
2017-05-07T11:33:57.627Z,83.11
2017-05-07T11:35:08.860Z,83.69
2017-05-07T11:36:19.879Z,83.01
2017-05-07T11:37:31.125Z,82.72
2017-05-07T11:38:42.138Z,83.69
2017-05-07T11:39:53.156Z,84.12
2017-05-07T11:41:04.225Z,84.7
2017-05-07T11:42:15.253Z,85.19
2017-05-07T11:43:26.485Z,84.8
2017-05-07T11:44:37.506Z,85.14
2017-05-07T11:45:48.522Z,87.17
2017-05-07T11:46:59.564Z,87.55
2017-05-07T11:48:10.574Z,87.03
2017-05-07T11:49:21.597Z,87.03
2017-05-07T11:50:32.828Z,87.51
2017-05-07T11:51:43.921Z,87.7
2017-05-07T11:52:54.963Z,86.74
2017-05-07T11:54:05.975Z,87.95
2017-05-07T11:55:17.205Z,86.69
2017-05-07T11:56:28.220Z,87.18
2017-05-07T11:57:39.283Z,87.46
2017-05-07T11:58:50.304Z,88.43
2017-05-07T12:00:01.328Z,88.53
2017-05-07T12:01:12.747Z,89.58
2017-05-07T12:02:24.167Z,91.51
2017-05-07T12:03:35.179Z,91.31
2017-05-07T12:04:46.194Z,91.22
2017-05-07T12:05:57.418Z,90.83
2017-05-07T12:07:08.447Z,89.68
2017-05-07T12:08:19.455Z,88.43
2017-05-07T12:09:30.512Z,88.91
2017-05-07T12:10:41.523Z,89.49
2017-05-07T12:11:52.733Z,89.1
2017-05-07T12:13:03.756Z,90.26
2017-05-07T12:14:14.772Z,89.29
2017-05-07T12:15:25.790Z,89.39
2017-05-07T12:16:36.800Z,88.81
2017-05-07T12:17:47.808Z,90.59
2017-05-07T12:18:58.874Z,90.59
2017-05-07T12:20:10.091Z,89.92
2017-05-07T12:21:21.102Z,88.67
2017-05-07T12:22:32.114Z,87.71
2017-05-07T12:23:43.120Z,88.04
2017-05-07T12:24:54.534Z,86.85
2017-05-07T12:26:05.553Z,87.9
2017-05-07T12:27:16.582Z,89.58
2017-05-07T12:28:27.597Z,88.71
2017-05-07T12:29:38.666Z,89.1
2017-05-07T12:30:49.687Z,90.55
2017-05-07T12:32:00.698Z,90.35
2017-05-07T12:33:11.702Z,89.2
2017-05-07T12:34:22.717Z,88.57
2017-05-07T12:35:33.942Z,88.38
2017-05-07T12:36:45.155Z,88.28
2017-05-07T12:37:56.175Z,87.6
2017-05-07T12:39:07.184Z,87.8
2017-05-07T12:40:18.390Z,87.7
2017-05-07T12:41:29.402Z,87.99
2017-05-07T12:42:40.626Z,87.7
2017-05-07T12:43:51.631Z,86.45
2017-05-07T12:45:02.922Z,87.7
2017-05-07T12:46:13.973Z,87.9
2017-05-07T12:47:25.194Z,87.22
2017-05-07T12:48:36.208Z,86.83
2017-05-07T12:49:47.248Z,87.03
2017-05-07T12:50:58.262Z,86.74
2017-05-07T12:52:09.280Z,85.78
2017-05-07T12:53:20.507Z,87.03
2017-05-07T12:54:31.514Z,86.59
2017-05-07T12:55:42.582Z,87.17
2017-05-07T12:56:53.794Z,87.65
2017-05-07T12:58:04.813Z,87.07
2017-05-07T12:59:15.836Z,84.76
2017-05-07T13:00:26.853Z,86.01
2017-05-07T13:01:38.074Z,83.89
2017-05-07T13:02:49.095Z,84.53
2017-05-07T13:04:00.111Z,85.24
2017-05-07T13:05:11.129Z,84.33
2017-05-07T13:06:22.147Z,85.87
2017-05-07T13:07:33.156Z,85
2017-05-07T13:08:44.374Z,85.1
2017-05-07T13:09:55.384Z,82.41
2017-05-07T13:11:06.591Z,84.53
2017-05-07T13:12:17.604Z,83.08
2017-05-07T13:13:28.665Z,84.23
2017-05-07T13:14:39.680Z,86.26
2017-05-07T13:15:50.687Z,83.85
2017-05-07T13:17:01.741Z,84.72
2017-05-07T13:18:12.762Z,82.64
2017-05-07T13:19:24.168Z,82.64
2017-05-07T13:20:35.187Z,85.78
2017-05-07T13:21:46.407Z,83.66
2017-05-07T13:22:57.485Z,85.14
2017-05-07T13:24:08.503Z,85.53
2017-05-07T13:25:19.514Z,83.12
2017-05-07T13:26:30.535Z,82.93
2017-05-07T13:27:41.543Z,82.26
2017-05-07T13:28:52.560Z,83.03
2017-05-07T13:30:03.578Z,83.8
2017-05-07T13:31:14.598Z,85.09
2017-05-07T13:32:25.626Z,84.12
2017-05-07T13:33:36.701Z,83.16
2017-05-07T13:34:47.720Z,84.03
2017-05-07T13:35:58.755Z,82.1
2017-05-07T13:37:09.806Z,82.39
2017-05-07T13:38:20.813Z,84.32
2017-05-07T13:39:31.838Z,84.66
2017-05-07T13:40:42.863Z,84.28
2017-05-07T13:41:53.876Z,84.09
2017-05-07T13:43:05.088Z,84.86
2017-05-07T13:44:16.157Z,83.89
2017-05-07T13:45:27.169Z,82.45
2017-05-07T13:46:38.189Z,82.74
2017-05-07T13:47:49.227Z,83.8
2017-05-07T13:49:00.249Z,84.95
2017-05-07T13:50:11.460Z,85.43
2017-05-07T13:51:22.471Z,85.34
2017-05-07T13:52:33.498Z,84.56
2017-05-07T13:53:44.923Z,82.93
2017-05-07T13:54:56.004Z,82.06
2017-05-07T13:56:07.464Z,86.01
2017-05-07T13:57:18.482Z,82.54
2017-05-07T13:58:29.487Z,84.18
2017-05-07T13:59:40.704Z,80.43
2017-05-07T14:00:51.730Z,81.96
2017-05-07T14:02:02.952Z,81.39
2017-05-07T14:03:13.967Z,80.43
2017-05-07T14:04:24.992Z,83.31
2017-05-07T14:05:36.018Z,82.83
2017-05-07T14:06:47.032Z,84.47
2017-05-07T14:07:58.047Z,83.51
2017-05-07T14:09:09.077Z,82.26
2017-05-07T14:10:20.115Z,84.09
2017-05-07T14:11:31.136Z,82.64
2017-05-07T14:12:42.148Z,81.2
2017-05-07T14:13:53.161Z,81.83
2017-05-07T14:15:04.387Z,83.66
2017-05-07T14:16:15.396Z,82.41
2017-05-07T14:17:26.451Z,86.01
2017-05-07T14:18:37.463Z,82.83
2017-05-07T14:19:48.470Z,82.16
2017-05-07T14:20:59.474Z,82.45
2017-05-07T14:22:10.495Z,81.96
2017-05-07T14:23:21.518Z,81.29
2017-05-07T14:24:32.740Z,79.75
2017-05-07T14:25:43.767Z,82.31
2017-05-07T14:26:54.839Z,82.26
2017-05-07T14:28:05.844Z,82.98
2017-05-07T14:29:16.853Z,83.61
2017-05-07T14:30:27.869Z,83.51
2017-05-07T14:31:38.879Z,82.74
2017-05-07T14:32:49.895Z,80.81
2017-05-07T14:34:01.509Z,83.03
2017-05-07T14:35:12.729Z,85.24
2017-05-07T14:36:24.147Z,82.45
2017-05-07T14:37:35.210Z,84.76
2017-05-07T14:38:46.224Z,81.48
2017-05-07T14:39:57.232Z,82.54
2017-05-07T14:41:08.261Z,84.22
2017-05-07T14:42:19.290Z,81.04
2017-05-07T14:43:30.297Z,81.77
2017-05-07T14:44:41.317Z,80.62
2017-05-07T14:45:52.532Z,81.39
2017-05-07T14:47:03.557Z,80.46
2017-05-07T14:48:14.619Z,80.43
2017-05-07T14:49:27.349Z,80.27
2017-05-07T14:50:40.760Z,81.52
2017-05-07T14:51:52.213Z,79.11
2017-05-07T14:53:04.082Z,81.81
2017-05-07T14:54:15.716Z,79.89
2017-05-07T14:55:26.730Z,78.73
2017-05-07T14:56:37.745Z,82.68
2017-05-07T14:57:48.757Z,81.33
2017-05-07T14:58:59.819Z,81.72
2017-05-07T15:00:11.044Z,82.01
2017-05-07T15:01:22.054Z,80.27
2017-05-07T15:02:33.066Z,82.87
2017-05-07T15:03:44.493Z,80.43
2017-05-07T15:04:55.711Z,83.51
2017-05-07T15:06:06.929Z,81.48
2017-05-07T15:07:17.943Z,80.33
2017-05-07T15:08:28.973Z,82.74
2017-05-07T15:09:39.980Z,81.1
2017-05-07T15:10:51.063Z,84.66
2017-05-07T15:12:02.077Z,82.68
2017-05-07T15:13:13.076Z,79.98
2017-05-07T15:14:24.116Z,81.48
2017-05-07T15:15:35.133Z,78.98
2017-05-07T15:16:46.391Z,80.23